Terminal Aerodrome Forecast
Issued by NWS

Home | Current Version | Previous Version | Text Only | Print | Product List | Glossary On
Versions: 1 2 3 4 5 6 7 8 9 10 11 12 13 14 15 16 17
000
FTUS41 KBTV 142300
TAFMSS
TAF
KMSS 142322Z 1500/1524 VRB02KT P6SM SCT040
     FM151200 23007KT P6SM SCT040
     FM151800 23007KT P6SM SCT040 BKN150=

USA.gov is the U.S. government's official web portal to all federal, state and local government web resources and services.